createdAt,value
2024-04-30T00:01:11.716Z,16.90
2024-04-30T00:03:43.048Z,16.90
2024-04-30T00:06:11.166Z,16.90
2024-04-30T00:08:39.709Z,16.90
2024-04-30T00:11:07.391Z,17.00
2024-04-30T00:13:35.098Z,17.00
2024-04-30T00:16:03.682Z,17.00
2024-04-30T00:18:31.433Z,17.00
2024-04-30T00:20:59.752Z,17.10
2024-04-30T00:23:27.277Z,17.10
2024-04-30T00:25:54.945Z,17.10
2024-04-30T00:28:22.603Z,17.20
2024-04-30T00:30:50.627Z,17.30
2024-04-30T00:33:18.239Z,17.40
2024-04-30T00:35:45.831Z,17.50
2024-04-30T00:38:13.468Z,17.50
2024-04-30T00:40:41.202Z,17.60
2024-04-30T00:43:08.767Z,17.60
2024-04-30T00:45:36.347Z,17.70
2024-04-30T00:48:04.682Z,17.50
2024-04-30T00:50:33.808Z,17.40
2024-04-30T00:53:02.707Z,17.30
2024-04-30T00:55:30.333Z,17.30
2024-04-30T00:57:57.968Z,17.10
2024-04-30T01:00:25.856Z,17.10
2024-04-30T01:02:53.467Z,17.00
2024-04-30T01:05:21.051Z,17.00
2024-04-30T01:07:48.839Z,17.00
2024-04-30T01:10:16.547Z,17.00
2024-04-30T01:12:45.974Z,17.00
2024-04-30T01:15:13.403Z,17.10
2024-04-30T01:17:41.175Z,17.10
2024-04-30T01:20:09.109Z,17.10
2024-04-30T01:22:36.695Z,17.20
2024-04-30T01:25:04.475Z,17.20
2024-04-30T01:27:32.058Z,17.20
2024-04-30T01:29:59.771Z,17.20
2024-04-30T01:32:27.857Z,17.10
2024-04-30T01:34:55.483Z,17.00
2024-04-30T01:37:23.156Z,17.00
2024-04-30T01:39:50.806Z,17.00
2024-04-30T01:42:18.359Z,16.90
2024-04-30T01:44:45.984Z,16.90
2024-04-30T01:47:13.557Z,16.90
2024-04-30T01:49:41.171Z,16.90
2024-04-30T01:52:08.819Z,16.90
2024-04-30T01:54:36.449Z,16.90
2024-04-30T01:57:04.127Z,16.90
2024-04-30T01:59:31.688Z,16.90
2024-04-30T02:01:59.225Z,16.90
2024-04-30T02:04:27.317Z,16.90
2024-04-30T02:06:56.534Z,17.00
2024-04-30T02:09:24.238Z,16.90
2024-04-30T02:11:51.849Z,17.00
2024-04-30T02:14:19.530Z,17.00
2024-04-30T02:16:47.135Z,17.00
2024-04-30T02:19:14.754Z,17.00
2024-04-30T02:21:42.424Z,16.90
2024-04-30T02:24:10.033Z,16.80
2024-04-30T02:26:37.650Z,16.90
2024-04-30T02:29:05.324Z,16.80
2024-04-30T02:31:32.980Z,16.80
2024-04-30T02:34:00.958Z,16.90
2024-04-30T02:36:28.650Z,16.90
2024-04-30T02:38:56.296Z,16.90
2024-04-30T02:41:23.884Z,17.00
2024-04-30T02:43:51.467Z,17.00
2024-04-30T02:46:19.108Z,17.00
2024-04-30T02:48:46.700Z,16.90
2024-04-30T02:51:14.304Z,16.80
2024-04-30T02:53:41.842Z,16.70
2024-04-30T02:56:09.442Z,16.60
2024-04-30T02:58:37.128Z,16.50
2024-04-30T03:01:05.352Z,16.30
2024-04-30T03:03:33.185Z,16.30
2024-04-30T03:06:03.957Z,16.40
2024-04-30T03:08:31.612Z,16.20
2024-04-30T03:11:00.235Z,16.30
2024-04-30T03:13:28.304Z,16.30
2024-04-30T03:15:55.963Z,16.30
2024-04-30T03:18:23.629Z,16.30
2024-04-30T03:20:51.261Z,16.30
2024-04-30T03:23:18.955Z,16.40
2024-04-30T03:25:46.512Z,16.40
2024-04-30T03:28:14.125Z,16.40
2024-04-30T03:30:41.867Z,16.50
2024-04-30T03:33:09.549Z,16.50
2024-04-30T03:35:37.387Z,16.50
2024-04-30T03:38:05.215Z,16.40
2024-04-30T03:40:32.785Z,16.40
2024-04-30T03:43:00.514Z,16.40
2024-04-30T03:45:28.209Z,16.40
2024-04-30T03:47:55.911Z,16.40
2024-04-30T03:50:23.567Z,16.40
2024-04-30T03:52:51.381Z,16.40
2024-04-30T03:55:19.091Z,16.30
2024-04-30T03:57:46.969Z,16.30
2024-04-30T04:00:14.952Z,16.20
2024-04-30T04:02:42.557Z,16.20
2024-04-30T04:05:10.225Z,16.10
2024-04-30T04:07:37.845Z,15.90
2024-04-30T04:10:05.991Z,15.90
2024-04-30T04:12:34.326Z,15.90
2024-04-30T04:15:01.919Z,16.00
2024-04-30T04:17:29.579Z,16.00
2024-04-30T04:19:57.368Z,16.00
2024-04-30T04:22:25.060Z,16.10
2024-04-30T04:24:52.560Z,16.10
2024-04-30T04:27:20.106Z,16.20
2024-04-30T04:29:47.733Z,16.20
2024-04-30T04:32:15.448Z,16.30
2024-04-30T04:34:43.146Z,16.30
2024-04-30T04:37:10.926Z,16.40
2024-04-30T04:39:38.606Z,16.40
2024-04-30T04:42:06.285Z,16.40
2024-04-30T04:44:33.877Z,16.50
2024-04-30T04:47:01.639Z,16.50
2024-04-30T04:49:29.291Z,16.60
2024-04-30T04:51:56.891Z,16.70
2024-04-30T04:54:24.507Z,16.60
2024-04-30T04:56:52.166Z,16.70
2024-04-30T04:59:19.742Z,16.70
2024-04-30T05:01:47.425Z,16.70
2024-04-30T05:04:15.156Z,16.70
2024-04-30T05:06:42.820Z,16.70
2024-04-30T05:09:10.464Z,16.60
2024-04-30T05:11:38.292Z,16.60
2024-04-30T05:14:06.125Z,16.50
2024-04-30T05:16:33.893Z,16.60
2024-04-30T05:19:01.667Z,16.50
2024-04-30T05:21:29.415Z,16.50
2024-04-30T05:23:57.023Z,16.50
2024-04-30T05:26:24.744Z,16.40
2024-04-30T05:28:52.343Z,16.40
2024-04-30T05:31:19.980Z,16.50
2024-04-30T05:33:47.653Z,16.50
2024-04-30T05:36:15.449Z,16.60
2024-04-30T05:38:43.382Z,16.40
2024-04-30T05:41:11.291Z,16.40
2024-04-30T05:43:39.009Z,16.30
2024-04-30T05:46:09.729Z,16.30
2024-04-30T05:48:37.356Z,16.30
2024-04-30T05:51:05.845Z,16.30
2024-04-30T05:53:33.484Z,16.30
2024-04-30T05:56:01.246Z,16.30
2024-04-30T05:58:28.805Z,16.30
2024-04-30T06:00:56.584Z,16.30
2024-04-30T06:03:24.277Z,16.40
2024-04-30T06:05:51.824Z,16.50
2024-04-30T06:08:19.497Z,16.60
2024-04-30T06:10:47.237Z,16.60
2024-04-30T06:13:14.937Z,16.60
2024-04-30T06:15:42.723Z,16.60
2024-04-30T06:18:10.505Z,16.70
2024-04-30T06:20:38.214Z,16.80
2024-04-30T06:23:05.862Z,16.80
2024-04-30T06:25:33.643Z,16.70
2024-04-30T06:28:01.197Z,16.80
2024-04-30T06:30:28.811Z,16.70
2024-04-30T06:32:56.414Z,16.80
2024-04-30T06:35:24.052Z,16.70
2024-04-30T06:37:51.766Z,16.80
2024-04-30T06:40:19.764Z,16.90
2024-04-30T06:42:47.411Z,17.00
2024-04-30T06:45:15.168Z,17.10
2024-04-30T06:47:42.890Z,17.20
2024-04-30T06:50:10.520Z,17.30
2024-04-30T06:52:38.121Z,17.30
2024-04-30T06:55:06.163Z,17.50
2024-04-30T06:57:33.709Z,17.60
2024-04-30T07:00:01.342Z,17.60
2024-04-30T07:02:28.936Z,17.60
2024-04-30T07:04:56.508Z,17.70
2024-04-30T07:07:24.317Z,17.70
2024-04-30T07:09:51.918Z,17.80
2024-04-30T07:12:19.418Z,17.90
2024-04-30T07:14:46.963Z,17.90
2024-04-30T07:17:14.974Z,18.00
2024-04-30T07:19:42.634Z,18.00
2024-04-30T07:22:10.317Z,18.00
2024-04-30T07:24:38.057Z,18.10
2024-04-30T07:27:05.951Z,18.10
2024-04-30T07:29:33.534Z,18.10
2024-04-30T07:32:01.302Z,18.20
2024-04-30T07:34:29.029Z,18.30
2024-04-30T07:36:56.615Z,18.30
2024-04-30T07:39:24.403Z,18.50
2024-04-30T07:41:52.355Z,18.50
2024-04-30T07:44:19.849Z,18.60
2024-04-30T07:46:47.392Z,18.70
2024-04-30T07:49:15.098Z,18.90
2024-04-30T07:51:42.728Z,19.00
2024-04-30T07:54:10.532Z,19.20
2024-04-30T07:56:38.106Z,19.40
2024-04-30T07:59:05.697Z,19.50
2024-04-30T08:01:33.396Z,19.40
2024-04-30T08:04:01.196Z,19.40
2024-04-30T08:06:28.885Z,19.50
2024-04-30T08:08:56.611Z,19.30
2024-04-30T08:11:24.316Z,19.20
2024-04-30T08:13:51.979Z,19.30
2024-04-30T08:16:19.666Z,19.50
2024-04-30T08:18:47.447Z,19.80
2024-04-30T08:21:15.142Z,19.80
2024-04-30T08:23:42.792Z,20.10
2024-04-30T08:26:10.450Z,20.20
2024-04-30T08:28:38.188Z,20.20
2024-04-30T08:31:06.317Z,20.30
2024-04-30T08:33:34.103Z,20.40
2024-04-30T08:36:01.860Z,20.50
2024-04-30T08:38:29.536Z,20.70
2024-04-30T08:40:57.330Z,20.80
2024-04-30T08:43:27.717Z,20.70
2024-04-30T08:45:57.502Z,20.90
2024-04-30T08:48:26.358Z,21.00
2024-04-30T08:50:55.975Z,20.90
2024-04-30T08:53:25.216Z,20.70
2024-04-30T08:55:54.382Z,20.80
2024-04-30T08:58:22.239Z,20.20
2024-04-30T09:00:49.828Z,20.40
2024-04-30T09:03:19.667Z,20.40
2024-04-30T09:05:47.727Z,20.30
2024-04-30T09:08:15.644Z,20.10
2024-04-30T09:10:43.326Z,20.20
2024-04-30T09:13:11.022Z,20.20
2024-04-30T09:15:38.653Z,20.30
2024-04-30T09:18:07.838Z,20.50
2024-04-30T09:20:45.693Z,20.60
2024-04-30T09:23:13.526Z,20.70
2024-04-30T09:25:41.262Z,20.60
2024-04-30T09:28:16.253Z,20.80
2024-04-30T09:30:55.080Z,21.10
2024-04-30T09:33:23.078Z,21.30
2024-04-30T09:36:07.281Z,21.30
2024-04-30T09:38:39.846Z,21.50
2024-04-30T09:41:12.173Z,21.60
2024-04-30T09:43:41.580Z,21.70
2024-04-30T09:46:09.612Z,21.90
2024-04-30T09:48:40.129Z,21.80
2024-04-30T09:51:09.169Z,21.90
2024-04-30T09:53:40.372Z,22.40
2024-04-30T09:56:08.174Z,22.70
2024-04-30T09:58:37.940Z,22.80
2024-04-30T10:01:13.197Z,22.40
2024-04-30T10:03:43.746Z,21.60
2024-04-30T10:06:14.739Z,21.00
2024-04-30T10:08:42.686Z,20.60
2024-04-30T10:11:11.362Z,20.70
2024-04-30T10:13:52.385Z,20.60
2024-04-30T10:16:20.607Z,20.60
2024-04-30T10:18:49.567Z,20.50
2024-04-30T10:21:17.503Z,20.80
2024-04-30T10:23:45.170Z,20.70
2024-04-30T10:26:13.199Z,21.00
2024-04-30T10:28:40.818Z,20.90
2024-04-30T10:31:13.583Z,21.30
2024-04-30T10:33:42.480Z,21.40
2024-04-30T10:36:11.874Z,21.50
2024-04-30T10:38:45.438Z,21.50
2024-04-30T10:41:13.087Z,22.20
2024-04-30T10:43:40.746Z,22.10
2024-04-30T10:46:16.427Z,22.50
2024-04-30T10:48:51.364Z,22.30
2024-04-30T10:51:23.980Z,22.70
2024-04-30T10:53:52.744Z,22.90
2024-04-30T10:56:20.801Z,23.40
2024-04-30T10:58:56.054Z,23.40
2024-04-30T11:01:34.076Z,23.60
2024-04-30T11:04:12.476Z,23.90
2024-04-30T11:06:44.958Z,23.90
2024-04-30T11:09:14.493Z,23.80
2024-04-30T11:11:46.524Z,24.00
2024-04-30T11:14:17.847Z,23.70
2024-04-30T11:16:46.681Z,24.00
2024-04-30T11:19:15.385Z,23.90
2024-04-30T11:21:43.684Z,23.40
2024-04-30T11:24:11.336Z,23.40
2024-04-30T11:26:39.022Z,23.40
2024-04-30T11:31:37.349Z,23.20
2024-04-30T11:34:05.121Z,23.20
2024-04-30T11:36:32.841Z,22.80
2024-04-30T11:39:00.768Z,23.00
2024-04-30T11:41:28.294Z,23.30
2024-04-30T11:43:55.886Z,23.00
2024-04-30T11:46:24.212Z,23.00
2024-04-30T11:48:52.055Z,23.00
2024-04-30T11:51:20.428Z,23.50
2024-04-30T11:53:49.175Z,23.60
2024-04-30T11:56:16.857Z,24.00
2024-04-30T11:58:44.444Z,23.90
2024-04-30T12:01:12.216Z,24.00
2024-04-30T12:03:39.851Z,24.10
2024-04-30T12:06:07.555Z,23.90
2024-04-30T12:08:35.490Z,23.80
2024-04-30T12:11:03.237Z,23.60
2024-04-30T12:13:30.880Z,23.70
2024-04-30T12:15:58.735Z,23.60
2024-04-30T12:18:26.415Z,23.20
2024-04-30T12:20:54.027Z,23.30
2024-04-30T12:23:21.813Z,23.60
2024-04-30T12:25:49.494Z,23.60
2024-04-30T12:28:17.143Z,24.20
2024-04-30T12:30:45.019Z,24.40
2024-04-30T12:33:12.746Z,24.80
2024-04-30T12:35:40.372Z,24.90
2024-04-30T12:38:08.002Z,25.00
2024-04-30T12:40:35.564Z,24.90
2024-04-30T12:43:03.084Z,25.10
2024-04-30T12:45:30.583Z,25.00
2024-04-30T12:47:58.711Z,24.40
2024-04-30T12:50:26.420Z,24.70
2024-04-30T12:52:54.027Z,24.90
2024-04-30T12:55:21.859Z,24.70
2024-04-30T12:57:49.459Z,24.60
2024-04-30T13:00:17.404Z,24.40
2024-04-30T13:02:45.280Z,24.20
2024-04-30T13:05:13.093Z,24.40
2024-04-30T13:07:40.920Z,24.30
2024-04-30T13:10:08.759Z,24.80
2024-04-30T13:12:36.320Z,25.20
2024-04-30T13:15:04.203Z,25.60
2024-04-30T13:17:32.008Z,25.70
2024-04-30T13:19:59.663Z,24.90
2024-04-30T13:22:27.408Z,24.30
2024-04-30T13:24:55.223Z,24.80
2024-04-30T13:27:22.804Z,24.50
2024-04-30T13:29:50.443Z,24.70
2024-04-30T13:32:18.066Z,25.30
2024-04-30T13:34:45.714Z,25.40
2024-04-30T13:37:13.499Z,25.60
2024-04-30T13:39:41.217Z,26.00
2024-04-30T13:42:08.751Z,25.80
2024-04-30T13:44:36.267Z,26.10
2024-04-30T13:47:03.912Z,26.20
2024-04-30T13:49:31.738Z,26.20
2024-04-30T13:51:59.577Z,26.00
2024-04-30T13:54:27.178Z,25.70
2024-04-30T13:56:54.820Z,25.60
2024-04-30T13:59:22.493Z,25.90
2024-04-30T14:01:50.169Z,25.00
2024-04-30T14:04:17.944Z,25.00
2024-04-30T14:06:45.902Z,24.60
2024-04-30T14:09:13.570Z,24.50
2024-04-30T14:11:41.284Z,23.50
2024-04-30T14:14:09.267Z,23.30
2024-04-30T14:16:36.982Z,23.30
2024-04-30T14:19:04.491Z,22.50
2024-04-30T14:21:32.103Z,22.10
2024-04-30T14:23:59.627Z,22.10
2024-04-30T14:26:27.286Z,22.00
2024-04-30T14:28:55.095Z,22.00
2024-04-30T14:31:24.096Z,21.40
2024-04-30T14:33:51.995Z,21.60
2024-04-30T14:36:19.692Z,21.70
2024-04-30T14:38:47.360Z,22.10
2024-04-30T14:41:15.322Z,22.00
2024-04-30T14:43:43.104Z,21.90
2024-04-30T14:46:10.712Z,21.10
2024-04-30T14:48:38.368Z,21.50
2024-04-30T14:51:06.328Z,21.70
2024-04-30T14:53:36.024Z,21.70
2024-04-30T14:56:05.106Z,21.70
2024-04-30T14:58:32.850Z,21.40
2024-04-30T15:01:00.407Z,21.40
2024-04-30T15:03:28.073Z,21.80
2024-04-30T15:05:55.774Z,22.10
2024-04-30T15:08:23.412Z,22.50
2024-04-30T15:10:51.171Z,22.70
2024-04-30T15:13:18.882Z,22.50
2024-04-30T15:15:46.457Z,22.30
2024-04-30T15:18:14.766Z,22.70
2024-04-30T15:20:42.864Z,22.70
2024-04-30T15:23:10.388Z,22.70
2024-04-30T15:25:37.987Z,23.20
2024-04-30T15:28:05.943Z,22.70
2024-04-30T15:30:33.473Z,22.80
2024-04-30T15:33:01.115Z,22.40
2024-04-30T15:35:28.813Z,22.40
2024-04-30T15:37:56.488Z,22.20
2024-04-30T15:40:24.242Z,22.10
2024-04-30T15:42:51.983Z,21.50
2024-04-30T15:45:19.661Z,21.40
2024-04-30T15:47:47.397Z,20.60
2024-04-30T15:50:15.259Z,20.90
2024-04-30T15:52:42.992Z,20.80
2024-04-30T15:55:10.673Z,21.00
2024-04-30T15:57:38.367Z,20.90
2024-04-30T16:00:06.794Z,20.80
2024-04-30T16:02:34.752Z,21.00
2024-04-30T16:05:02.818Z,21.00
2024-04-30T16:07:30.686Z,21.00
2024-04-30T16:09:58.355Z,21.20
2024-04-30T16:12:25.942Z,20.80
2024-04-30T16:14:55.227Z,20.90
2024-04-30T16:17:23.124Z,20.80
2024-04-30T16:19:50.685Z,20.90
2024-04-30T16:22:18.335Z,20.80
2024-04-30T16:24:46.345Z,20.70
2024-04-30T16:27:14.251Z,20.90
2024-04-30T16:29:42.070Z,20.70
2024-04-30T16:32:09.735Z,20.70
2024-04-30T16:34:37.277Z,20.30
2024-04-30T16:37:05.352Z,20.30
2024-04-30T16:39:33.102Z,20.10
2024-04-30T16:42:00.847Z,20.10
2024-04-30T16:44:36.935Z,20.30
2024-04-30T16:47:12.348Z,20.20
2024-04-30T16:49:40.142Z,20.20
2024-04-30T16:52:07.829Z,20.30
2024-04-30T16:54:35.757Z,20.10
2024-04-30T16:57:03.415Z,20.20
2024-04-30T16:59:31.053Z,20.10
2024-04-30T17:01:58.730Z,20.20
2024-04-30T17:04:26.416Z,20.10
2024-04-30T17:06:54.312Z,19.90
2024-04-30T17:09:22.225Z,19.80
2024-04-30T17:11:49.800Z,19.80
2024-04-30T17:14:17.658Z,19.60
2024-04-30T17:16:45.357Z,19.40
2024-04-30T17:19:13.489Z,19.50
2024-04-30T17:21:46.197Z,19.40
2024-04-30T17:24:14.365Z,19.30
2024-04-30T17:26:48.416Z,19.50
2024-04-30T17:29:17.068Z,19.30
2024-04-30T17:31:45.127Z,19.20
2024-04-30T17:34:12.895Z,19.10
2024-04-30T17:36:41.660Z,19.00
2024-04-30T17:39:13.616Z,18.90
2024-04-30T17:41:41.156Z,18.70
2024-04-30T17:44:08.723Z,18.70
2024-04-30T17:46:41.871Z,18.50
2024-04-30T17:49:13.685Z,18.50
2024-04-30T17:51:42.648Z,18.50
2024-04-30T17:54:10.553Z,18.50
2024-04-30T17:56:39.945Z,18.40
2024-04-30T17:59:07.883Z,18.30
2024-04-30T18:01:35.569Z,18.30
2024-04-30T18:04:03.549Z,18.20
2024-04-30T18:06:31.613Z,18.10
2024-04-30T18:08:59.294Z,18.20
2024-04-30T18:11:30.115Z,18.10
2024-04-30T18:13:58.052Z,18.20
2024-04-30T18:16:27.561Z,18.20
2024-04-30T18:18:55.595Z,18.30
2024-04-30T18:21:24.891Z,18.20
2024-04-30T18:23:52.460Z,18.30
2024-04-30T18:26:20.096Z,18.20
2024-04-30T18:28:49.662Z,18.10
2024-04-30T18:31:17.563Z,17.90
2024-04-30T18:33:45.573Z,18.00
2024-04-30T18:36:13.694Z,17.90
2024-04-30T18:38:41.809Z,17.80
2024-04-30T18:41:20.937Z,17.70
2024-04-30T18:43:56.116Z,17.70
2024-04-30T18:46:26.098Z,17.70
2024-04-30T18:48:58.077Z,17.60
2024-04-30T18:51:26.711Z,17.70
2024-04-30T18:53:54.945Z,17.60
2024-04-30T18:56:23.030Z,17.60
2024-04-30T18:58:51.325Z,17.60
2024-04-30T19:01:19.796Z,17.50
2024-04-30T19:03:50.781Z,17.50
2024-04-30T19:06:21.127Z,17.50
2024-04-30T19:08:49.512Z,17.50
2024-04-30T19:11:22.689Z,17.60
2024-04-30T19:13:50.613Z,17.60
2024-04-30T19:16:18.893Z,17.60
2024-04-30T19:18:47.221Z,17.60
2024-04-30T19:21:18.133Z,17.60
2024-04-30T19:23:50.160Z,17.70
2024-04-30T19:26:21.003Z,17.70
2024-04-30T19:28:52.196Z,17.70
2024-04-30T19:31:23.484Z,17.80
2024-04-30T19:33:52.078Z,17.80
2024-04-30T19:36:27.171Z,17.80
2024-04-30T19:38:56.645Z,17.70
2024-04-30T19:41:30.230Z,17.80
2024-04-30T19:43:58.417Z,17.70
2024-04-30T19:46:26.638Z,17.80
2024-04-30T19:48:54.895Z,17.70
2024-04-30T19:51:23.645Z,17.60
2024-04-30T19:53:54.655Z,17.60
2024-04-30T19:56:26.498Z,17.60
2024-04-30T19:58:57.735Z,17.50
2024-04-30T20:01:27.081Z,17.50
2024-04-30T20:03:59.362Z,17.50
2024-04-30T20:06:28.042Z,17.50
2024-04-30T20:08:56.288Z,17.50
2024-04-30T20:11:27.584Z,17.40
2024-04-30T20:14:17.677Z,17.40
2024-04-30T20:16:51.286Z,17.40
2024-04-30T20:19:22.888Z,17.40
2024-04-30T20:21:51.112Z,17.40
2024-04-30T20:24:21.801Z,17.40
2024-04-30T20:27:06.363Z,17.40
2024-04-30T20:29:34.483Z,17.40
2024-04-30T20:32:05.650Z,17.40
2024-04-30T20:34:34.412Z,17.40
2024-04-30T20:37:03.083Z,17.40
2024-04-30T20:39:39.662Z,17.40
2024-04-30T20:42:09.275Z,17.40
2024-04-30T20:44:39.664Z,17.40
2024-04-30T20:47:10.642Z,17.50
2024-04-30T20:49:38.659Z,17.50
2024-04-30T20:52:06.976Z,17.40
2024-04-30T20:54:35.309Z,17.40
2024-04-30T20:57:03.546Z,17.50
2024-04-30T20:59:31.589Z,17.50
2024-04-30T21:01:59.450Z,17.50
2024-04-30T21:04:27.361Z,17.50
2024-04-30T21:06:57.249Z,17.50
2024-04-30T21:09:27.110Z,17.50
2024-04-30T21:11:54.773Z,17.60
2024-04-30T21:14:22.384Z,17.60
2024-04-30T21:16:52.172Z,17.70
2024-04-30T21:19:19.891Z,17.70
2024-04-30T21:21:47.757Z,17.70
2024-04-30T21:24:15.464Z,17.80
2024-04-30T21:26:43.090Z,17.80
2024-04-30T21:29:10.678Z,17.70
2024-04-30T21:31:40.570Z,17.70
2024-04-30T21:34:08.199Z,17.70
2024-04-30T21:36:36.588Z,17.60
2024-04-30T21:39:04.297Z,17.60
2024-04-30T21:41:31.833Z,17.60
2024-04-30T21:44:02.556Z,17.50
2024-04-30T21:46:30.253Z,17.50
2024-04-30T21:48:57.856Z,17.50
2024-04-30T21:51:25.660Z,17.50
2024-04-30T21:53:53.228Z,17.50
2024-04-30T21:56:20.963Z,17.40
2024-04-30T21:58:48.900Z,17.40
2024-04-30T22:01:16.559Z,17.40
2024-04-30T22:03:45.085Z,17.20
2024-04-30T22:06:12.765Z,17.30
2024-04-30T22:08:40.667Z,17.20
2024-04-30T22:11:08.407Z,17.20
2024-04-30T22:13:36.488Z,17.20
2024-04-30T22:16:04.209Z,17.20
2024-04-30T22:18:32.871Z,17.10
2024-04-30T22:21:00.712Z,17.20
2024-04-30T22:23:28.319Z,17.20
2024-04-30T22:25:55.971Z,17.20
2024-04-30T22:28:23.631Z,17.10
2024-04-30T22:30:51.283Z,17.10
2024-04-30T22:33:19.027Z,17.10
2024-04-30T22:35:46.827Z,17.10
2024-04-30T22:38:14.353Z,17.20
2024-04-30T22:40:41.979Z,17.20
2024-04-30T22:43:09.604Z,17.10
2024-04-30T22:45:38.124Z,17.10
2024-04-30T22:48:06.432Z,17.20
2024-04-30T22:50:34.429Z,17.10
2024-04-30T22:53:02.277Z,17.10
2024-04-30T22:55:29.968Z,17.10
2024-04-30T22:57:57.672Z,17.10
2024-04-30T23:00:25.545Z,17.20
2024-04-30T23:02:53.234Z,17.10
2024-04-30T23:05:21.370Z,17.20
2024-04-30T23:07:48.996Z,17.20
2024-04-30T23:10:16.852Z,17.20
2024-04-30T23:12:44.627Z,17.20
2024-04-30T23:15:12.273Z,17.20
2024-04-30T23:17:40.063Z,17.20
2024-04-30T23:20:08.272Z,17.20
2024-04-30T23:22:36.946Z,17.20
2024-04-30T23:25:05.237Z,17.20
2024-04-30T23:27:32.895Z,17.10
2024-04-30T23:30:00.793Z,17.20
2024-04-30T23:32:28.509Z,17.20
2024-04-30T23:34:56.118Z,17.20
2024-04-30T23:37:23.668Z,17.20
2024-04-30T23:39:51.316Z,17.20
2024-04-30T23:42:22.998Z,17.20
2024-04-30T23:44:51.418Z,17.20
2024-04-30T23:47:19.050Z,17.30
2024-04-30T23:49:46.632Z,17.20
2024-04-30T23:52:14.487Z,17.20
2024-04-30T23:54:44.103Z,17.20
2024-04-30T23:57:11.826Z,17.20
2024-04-30T23:59:39.401Z,17.20
